sensor_id;sensor_type;location;lat;lon;timestamp;P1;durP1;ratioP1;P2;durP2;ratioP2
5678;SDS011;2862;52.560;13.566;2024-01-15T00:04:06;25.93;;;9.10;;
5678;SDS011;2862;52.560;13.566;2024-01-15T00:14:10;28.50;;;8.57;;
5678;SDS011;2862;52.560;13.566;2024-01-15T00:24:16;25.27;;;7.90;;
5678;SDS011;2862;52.560;13.566;2024-01-15T00:34:20;30.00;;;8.97;;
5678;SDS011;2862;52.560;13.566;2024-01-15T00:44:23;25.87;;;8.80;;
5678;SDS011;2862;52.560;13.566;2024-01-15T00:54:27;25.73;;;7.70;;
5678;SDS011;2862;52.560;13.566;2024-01-15T01:04:31;24.60;;;6.70;;
5678;SDS011;2862;52.560;13.566;2024-01-15T01:14:35;25.87;;;7.00;;
5678;SDS011;2862;52.560;13.566;2024-01-15T01:24:38;21.37;;;6.70;;
5678;SDS011;2862;52.560;13.566;2024-01-15T01:34:42;26.40;;;9.50;;
5678;SDS011;2862;52.560;13.566;2024-01-15T01:44:45;27.00;;;8.53;;
5678;SDS011;2862;52.560;13.566;2024-01-15T01:54:49;29.40;;;9.37;;
5678;SDS011;2862;52.560;13.566;2024-01-15T02:04:54;25.07;;;7.53;;
5678;SDS011;2862;52.560;13.566;2024-01-15T02:14:58;26.23;;;6.67;;
5678;SDS011;2862;52.560;13.566;2024-01-15T02:25:03;23.33;;;6.60;;
5678;SDS011;2862;52.560;13.566;2024-01-15T02:35:06;24.00;;;6.53;;
5678;SDS011;2862;52.560;13.566;2024-01-15T02:45:11;18.90;;;4.67;;
5678;SDS011;2862;52.560;13.566;2024-01-15T02:55:14;21.60;;;4.37;;
5678;SDS011;2862;52.560;13.566;2024-01-15T03:05:18;23.00;;;5.43;;
5678;SDS011;2862;52.560;13.566;2024-01-15T03:15:22;19.53;;;4.80;;
5678;SDS011;2862;52.560;13.566;2024-01-15T03:25:26;20.00;;;4.70;;
5678;SDS011;2862;52.560;13.566;2024-01-15T03:35:29;21.00;;;3.40;;
5678;SDS011;2862;52.560;13.566;2024-01-15T03:45:33;16.60;;;3.33;;
5678;SDS011;2862;52.560;13.566;2024-01-15T03:55:36;17.83;;;4.07;;
5678;SDS011;2862;52.560;13.566;2024-01-15T04:05:40;16.00;;;2.80;;
5678;SDS011;2862;52.560;13.566;2024-01-15T04:15:43;17.47;;;2.80;;
5678;SDS011;2862;52.560;13.566;2024-01-15T04:25:47;18.60;;;3.70;;
5678;SDS011;2862;52.560;13.566;2024-01-15T04:35:50;17.67;;;2.00;;
5678;SDS011;2862;52.560;13.566;2024-01-15T04:45:57;21.23;;;2.70;;
5678;SDS011;2862;52.560;13.566;2024-01-15T04:56:01;24.47;;;4.30;;
5678;SDS011;2862;52.560;13.566;2024-01-15T05:06:05;16.10;;;2.83;;
5678;SDS011;2862;52.560;13.566;2024-01-15T05:16:09;17.53;;;1.53;;
5678;SDS011;2862;52.560;13.566;2024-01-15T05:26:13;14.03;;;0.83;;
5678;SDS011;2862;52.560;13.566;2024-01-15T05:36:16;18.20;;;1.30;;
5678;SDS011;2862;52.560;13.566;2024-01-15T05:46:20;13.47;;;1.17;;
5678;SDS011;2862;52.560;13.566;2024-01-15T05:56:23;19.97;;;2.10;;
5678;SDS011;2862;52.560;13.566;2024-01-15T06:06:28;16.37;;;0.50;;
5678;SDS011;2862;52.560;13.566;2024-01-15T06:16:31;13.33;;;0.70;;
5678;SDS011;2862;52.560;13.566;2024-01-15T06:26:35;11.97;;;0.53;;
5678;SDS011;2862;52.560;13.566;2024-01-15T06:36:38;16.93;;;0.30;;
5678;SDS011;2862;52.560;13.566;2024-01-15T06:46:43;21.60;;;0.50;;
5678;SDS011;2862;52.560;13.566;2024-01-15T06:56:46;16.97;;;0.40;;
5678;SDS011;2862;52.560;13.566;2024-01-15T07:06:50;9.20;;;0.30;;
5678;SDS011;2862;52.560;13.566;2024-01-15T07:16:53;17.03;;;0.60;;
5678;SDS011;2862;52.560;13.566;2024-01-15T07:26:57;23.87;;;1.20;;
5678;SDS011;2862;52.560;13.566;2024-01-15T07:37:01;56.30;;;21.30;;
5678;SDS011;2862;52.560;13.566;2024-01-15T07:47:05;16.23;;;1.30;;
5678;SDS011;2862;52.560;13.566;2024-01-15T07:57:08;32.50;;;9.13;;
5678;SDS011;2862;52.560;13.566;2024-01-15T08:07:12;37.93;;;3.77;;
5678;SDS011;2862;52.560;13.566;2024-01-15T08:17:15;15.57;;;0.53;;
5678;SDS011;2862;52.560;13.566;2024-01-15T08:27:20;19.90;;;1.07;;
5678;SDS011;2862;52.560;13.566;2024-01-15T08:37:23;19.03;;;1.07;;
5678;SDS011;2862;52.560;13.566;2024-01-15T08:47:27;13.67;;;0.60;;
5678;SDS011;2862;52.560;13.566;2024-01-15T08:57:30;19.07;;;0.70;;
5678;SDS011;2862;52.560;13.566;2024-01-15T09:07:33;25.30;;;1.20;;
5678;SDS011;2862;52.560;13.566;2024-01-15T09:17:36;19.50;;;1.73;;
5678;SDS011;2862;52.560;13.566;2024-01-15T09:27:40;21.43;;;1.10;;
5678;SDS011;2862;52.560;13.566;2024-01-15T09:37:43;15.07;;;0.60;;
5678;SDS011;2862;52.560;13.566;2024-01-15T09:47:48;19.00;;;0.40;;
5678;SDS011;2862;52.560;13.566;2024-01-15T09:57:51;14.00;;;0.40;;
5678;SDS011;2862;52.560;13.566;2024-01-15T10:07:57;14.67;;;0.50;;
5678;SDS011;2862;52.560;13.566;2024-01-15T10:18:03;15.13;;;0.87;;
5678;SDS011;2862;52.560;13.566;2024-01-15T10:28:08;14.10;;;0.57;;
5678;SDS011;2862;52.560;13.566;2024-01-15T10:38:12;12.23;;;0.43;;
5678;SDS011;2862;52.560;13.566;2024-01-15T10:48:18;16.33;;;0.60;;
5678;SDS011;2862;52.560;13.566;2024-01-15T10:58:24;12.47;;;0.50;;
5678;SDS011;2862;52.560;13.566;2024-01-15T11:08:33;12.13;;;0.43;;
5678;SDS011;2862;52.560;13.566;2024-01-15T11:18:37;17.73;;;0.30;;
5678;SDS011;2862;52.560;13.566;2024-01-15T11:28:50;10.57;;;0.30;;
5678;SDS011;2862;52.560;13.566;2024-01-15T11:38:53;11.37;;;0.30;;
5678;SDS011;2862;52.560;13.566;2024-01-15T11:48:58;9.77;;;0.20;;
5678;SDS011;2862;52.560;13.566;2024-01-15T11:59:07;13.63;;;0.30;;
5678;SDS011;2862;52.560;13.566;2024-01-15T12:09:12;11.47;;;0.30;;
5678;SDS011;2862;52.560;13.566;2024-01-15T12:19:15;20.07;;;0.80;;
5678;SDS011;2862;52.560;13.566;2024-01-15T12:29:19;10.10;;;0.30;;
5678;SDS011;2862;52.560;13.566;2024-01-15T12:39:22;12.20;;;0.83;;
5678;SDS011;2862;52.560;13.566;2024-01-15T12:49:28;10.43;;;0.30;;
5678;SDS011;2862;52.560;13.566;2024-01-15T12:59:31;8.90;;;0.23;;
5678;SDS011;2862;52.560;13.566;2024-01-15T13:09:36;9.07;;;0.20;;
5678;SDS011;2862;52.560;13.566;2024-01-15T13:19:39;11.43;;;0.40;;
5678;SDS011;2862;52.560;13.566;2024-01-15T13:29:44;11.93;;;0.30;;
5678;SDS011;2862;52.560;13.566;2024-01-15T13:39:47;8.90;;;0.37;;
5678;SDS011;2862;52.560;13.566;2024-01-15T13:49:51;9.70;;;0.30;;
5678;SDS011;2862;52.560;13.566;2024-01-15T13:59:55;8.50;;;0.20;;
5678;SDS011;2862;52.560;13.566;2024-01-15T14:09:59;12.10;;;0.33;;
5678;SDS011;2862;52.560;13.566;2024-01-15T14:20:02;11.07;;;0.30;;
5678;SDS011;2862;52.560;13.566;2024-01-15T14:30:08;12.10;;;0.30;;
5678;SDS011;2862;52.560;13.566;2024-01-15T14:40:14;10.30;;;0.50;;
5678;SDS011;2862;52.560;13.566;2024-01-15T14:50:19;19.97;;;0.30;;
5678;SDS011;2862;52.560;13.566;2024-01-15T15:00:23;12.20;;;0.30;;
5678;SDS011;2862;52.560;13.566;2024-01-15T15:10:27;16.07;;;0.40;;
5678;SDS011;2862;52.560;13.566;2024-01-15T15:20:29;13.13;;;0.70;;
5678;SDS011;2862;52.560;13.566;2024-01-15T15:30:34;22.60;;;0.87;;
5678;SDS011;2862;52.560;13.566;2024-01-15T15:40:37;12.20;;;0.50;;
5678;SDS011;2862;52.560;13.566;2024-01-15T15:50:41;14.20;;;0.50;;
5678;SDS011;2862;52.560;13.566;2024-01-15T16:00:44;14.27;;;0.30;;
5678;SDS011;2862;52.560;13.566;2024-01-15T16:10:49;13.00;;;0.40;;
5678;SDS011;2862;52.560;13.566;2024-01-15T16:20:53;11.93;;;0.70;;
5678;SDS011;2862;52.560;13.566;2024-01-15T16:31:17;11.57;;;0.40;;
5678;SDS011;2862;52.560;13.566;2024-01-15T16:41:20;9.03;;;0.30;;
5678;SDS011;2862;52.560;13.566;2024-01-15T16:51:24;10.73;;;0.40;;
5678;SDS011;2862;52.560;13.566;2024-01-15T17:01:27;15.13;;;0.57;;
5678;SDS011;2862;52.560;13.566;2024-01-15T17:11:31;12.73;;;0.63;;
5678;SDS011;2862;52.560;13.566;2024-01-15T17:21:34;11.13;;;0.60;;
5678;SDS011;2862;52.560;13.566;2024-01-15T17:31:39;18.10;;;1.23;;
5678;SDS011;2862;52.560;13.566;2024-01-15T17:41:42;12.30;;;0.70;;
5678;SDS011;2862;52.560;13.566;2024-01-15T17:51:47;13.90;;;0.57;;
5678;SDS011;2862;52.560;13.566;2024-01-15T18:01:50;15.20;;;0.57;;
5678;SDS011;2862;52.560;13.566;2024-01-15T18:11:55;12.93;;;0.30;;
5678;SDS011;2862;52.560;13.566;2024-01-15T18:22:02;12.20;;;0.30;;
5678;SDS011;2862;52.560;13.566;2024-01-15T18:32:07;17.73;;;0.50;;
5678;SDS011;2862;52.560;13.566;2024-01-15T18:42:11;17.30;;;2.50;;
5678;SDS011;2862;52.560;13.566;2024-01-15T18:52:15;18.83;;;2.20;;
5678;SDS011;2862;52.560;13.566;2024-01-15T19:02:20;11.70;;;0.50;;
5678;SDS011;2862;52.560;13.566;2024-01-15T19:12:24;14.47;;;0.60;;
5678;SDS011;2862;52.560;13.566;2024-01-15T19:22:27;15.10;;;0.80;;
5678;SDS011;2862;52.560;13.566;2024-01-15T19:32:31;20.23;;;1.10;;
5678;SDS011;2862;52.560;13.566;2024-01-15T19:42:35;14.30;;;0.30;;
5678;SDS011;2862;52.560;13.566;2024-01-15T19:52:40;15.03;;;0.40;;
5678;SDS011;2862;52.560;13.566;2024-01-15T20:02:43;11.87;;;0.40;;
5678;SDS011;2862;52.560;13.566;2024-01-15T20:12:47;10.77;;;0.40;;
5678;SDS011;2862;52.560;13.566;2024-01-15T20:22:50;11.90;;;0.40;;
5678;SDS011;2862;52.560;13.566;2024-01-15T20:32:54;16.13;;;0.63;;
5678;SDS011;2862;52.560;13.566;2024-01-15T20:42:57;12.13;;;0.40;;
5678;SDS011;2862;52.560;13.566;2024-01-15T20:53:01;16.67;;;3.00;;
5678;SDS011;2862;52.560;13.566;2024-01-15T21:03:04;11.63;;;0.30;;
5678;SDS011;2862;52.560;13.566;2024-01-15T21:13:09;11.53;;;0.47;;
5678;SDS011;2862;52.560;13.566;2024-01-15T21:23:12;11.57;;;0.43;;
5678;SDS011;2862;52.560;13.566;2024-01-15T21:33:17;10.60;;;0.43;;
5678;SDS011;2862;52.560;13.566;2024-01-15T21:43:20;10.90;;;0.30;;
5678;SDS011;2862;52.560;13.566;2024-01-15T21:53:24;14.03;;;0.40;;
5678;SDS011;2862;52.560;13.566;2024-01-15T22:03:27;16.67;;;0.77;;
5678;SDS011;2862;52.560;13.566;2024-01-15T22:13:31;12.23;;;0.47;;
5678;SDS011;2862;52.560;13.566;2024-01-15T22:23:34;11.50;;;0.30;;
5678;SDS011;2862;52.560;13.566;2024-01-15T22:33:39;11.23;;;0.30;;
5678;SDS011;2862;52.560;13.566;2024-01-15T22:43:42;12.83;;;0.30;;
5678;SDS011;2862;52.560;13.566;2024-01-15T22:53:47;12.30;;;0.30;;
5678;SDS011;2862;52.560;13.566;2024-01-15T23:03:50;14.40;;;0.43;;
5678;SDS011;2862;52.560;13.566;2024-01-15T23:13:54;12.07;;;0.30;;
5678;SDS011;2862;52.560;13.566;2024-01-15T23:23:58;14.70;;;0.30;;
5678;SDS011;2862;52.560;13.566;2024-01-15T23:34:02;11.53;;;0.30;;
5678;SDS011;2862;52.560;13.566;2024-01-15T23:44:07;13.73;;;0.50;;
5678;SDS011;2862;52.560;13.566;2024-01-15T23:54:13;12.00;;;0.50;;
